Brinckley, Indiana
Current Conditions -  °F | °C
As of 4:53 AM on Saturday 25 Oct 2014 (Local Time) from KMIE Reporting Station
Overcast Overcast  
Wind Chill: 55°   Ceiling: 5500
Heat Index: 55°   Visibility: 8mi
Dew Point: 50°   Wind: 7mph
Humidity: 83%   Direction: 200°SSW
Pressure: 29.95"   Gusts: NA
Location:  40.2108°N, 85.1197°W
Report Text: KMIE 250853Z AUTO 20006KT 8SM OVC055 13/10 A2995 RMK AO2 SLP136 T01280100 58013
Loading
Personal Weather Stations






























Interactive Weather Map New forecast layout! Learn more

10-Day Weather Forecast

Advertisements
Track Severe Weather on mobile